Time;durP1;ratioP1;P1;durP2;ratioP2;P2;SDS_P1;SDS_P2;PMS_P1;PMS_P2;Temp;Humidity;BMP_temperature;BMP_pressure;BME280_temperature;BME280_humidity;BME280_pressure;Samples;Min_cycle;Max_cycle;Signal;HPM_P1;HPM_P2
2020/12/06 00:00:15;;;;;;;10.32;6.80;;;;;;;22.20;40.14;95114.59;4921347;29;20428;-76
2020/12/06 00:02:40;;;;;;;9.65;7.13;;;;;;;22.17;39.93;95116.31;4940302;29;20042;-77
2020/12/06 00:05:10;;;;;;;9.60;6.40;;;;;;;22.17;39.86;95119.03;4930780;29;20036;-76
2020/12/06 00:07:38;;;;;;;10.45;6.75;;;;;;;22.18;39.90;95123.25;4931276;29;20036;-76
2020/12/06 00:10:07;;;;;;;9.95;6.55;;;;;;;22.18;39.90;95117.81;4920500;29;20051;-76
2020/12/06 00:12:34;;;;;;;9.32;6.18;;;;;;;22.11;39.98;95126.47;4920925;29;20033;-76
2020/12/06 00:14:59;;;;;;;10.27;6.88;;;;;;;22.01;40.06;95119.06;4933783;29;20048;-77
2020/12/06 00:17:25;;;;;;;10.88;6.30;;;;;;;22.10;40.20;95126.97;4931655;29;20090;-76
2020/12/06 00:19:50;;;;;;;9.30;6.25;;;;;;;22.08;39.84;95130.19;4922130;29;20027;-76
2020/12/06 00:22:16;;;;;;;9.57;6.68;;;;;;;22.02;39.95;95126.00;4932221;29;20091;-76
2020/12/06 00:24:41;;;;;;;8.30;6.15;;;;;;;22.05;40.08;95125.75;4919293;29;20032;-76
2020/12/06 00:27:07;;;;;;;10.20;6.65;;;;;;;22.03;40.11;95128.22;4918556;29;20382;-76
2020/12/06 00:29:32;;;;;;;8.85;6.30;;;;;;;22.03;40.23;95130.94;4928147;29;22144;-77
2020/12/06 00:31:58;;;;;;;10.73;6.63;;;;;;;22.03;40.01;95133.66;4933318;29;20039;-76
2020/12/06 00:34:24;;;;;;;8.38;5.97;;;;;;;22.02;39.99;95137.63;4937572;29;20031;-78
2020/12/06 00:36:49;;;;;;;8.98;6.10;;;;;;;21.98;40.22;95131.69;4919841;29;20031;-76
2020/12/06 00:39:15;;;;;;;10.02;6.15;;;;;;;21.97;40.42;95141.09;4918340;29;20027;-76
2020/12/06 00:41:40;;;;;;;9.82;6.45;;;;;;;21.95;40.18;95129.94;4915110;29;20032;-76
2020/12/06 00:44:06;;;;;;;9.63;6.15;;;;;;;21.92;40.29;95121.31;4913398;29;20119;-76
2020/12/06 00:46:33;;;;;;;8.70;6.05;;;;;;;21.86;40.09;95117.88;4936444;29;20094;-76
2020/12/06 00:48:58;;;;;;;8.35;6.10;;;;;;;21.96;40.33;95128.72;4915559;29;20050;-76
2020/12/06 00:51:24;;;;;;;9.65;6.57;;;;;;;21.90;40.26;95129.97;4913040;29;20450;-76
2020/12/06 00:53:49;;;;;;;8.32;6.10;;;;;;;21.92;40.30;95139.09;4935206;29;20031;-76
2020/12/06 00:56:18;;;;;;;9.10;6.28;;;;;;;21.94;40.24;95135.88;4935069;29;20036;-76
2020/12/06 00:58:44;;;;;;;9.18;6.15;;;;;;;21.91;40.51;95136.16;4915502;29;20028;-76
2020/12/06 01:01:10;;;;;;;9.13;6.50;;;;;;;21.79;40.33;95118.38;4917383;29;20051;-76
2020/12/06 01:03:35;;;;;;;8.57;6.10;;;;;;;21.89;40.21;95127.75;4938870;28;21761;-77
2020/12/06 01:06:00;;;;;;;8.23;5.47;;;;;;;21.85;40.40;95132.69;4927101;29;20030;-77
2020/12/06 01:08:26;;;;;;;8.68;6.03;;;;;;;21.82;40.41;95120.09;4939640;29;20035;-76
2020/12/06 01:10:51;;;;;;;8.85;6.05;;;;;;;21.84;40.26;95131.19;4923311;29;20047;-76
2020/12/06 01:13:17;;;;;;;7.60;5.50;;;;;;;21.81;40.39;95121.31;4934522;29;20019;-76
2020/12/06 01:15:42;;;;;;;9.50;6.15;;;;;;;21.82;40.41;95122.81;4940727;29;20458;-76
2020/12/06 01:18:07;;;;;;;8.70;6.22;;;;;;;21.83;40.33;95124.31;4938794;29;20023;-75
2020/12/06 01:20:33;;;;;;;9.02;5.88;;;;;;;21.78;40.34;95119.59;4939299;29;20035;-76
2020/12/06 01:22:58;;;;;;;8.27;5.60;;;;;;;21.80;40.19;95125.28;4936656;29;20031;-76
2020/12/06 01:25:24;;;;;;;8.82;6.15;;;;;;;21.77;40.48;95121.56;4920968;29;20405;-75
2020/12/06 01:27:49;;;;;;;8.63;5.60;;;;;;;21.69;40.46;95109.00;4936376;29;20035;-76
2020/12/06 01:30:14;;;;;;;8.43;6.18;;;;;;;21.73;40.45;95123.06;4905716;29;20778;-77
2020/12/06 01:32:40;;;;;;;8.73;5.80;;;;;;;21.74;40.49;95128.00;4940149;29;20028;-77
2020/12/06 01:35:05;;;;;;;8.38;5.97;;;;;;;21.72;40.32;95110.69;4936830;29;20031;-76
2020/12/06 01:37:31;;;;;;;8.73;5.55;;;;;;;21.72;40.45;95107.97;4935410;29;20093;-76
2020/12/06 01:39:56;;;;;;;8.80;5.70;;;;;;;21.73;40.37;95117.63;4922705;29;20035;-76
2020/12/06 01:42:22;;;;;;;9.75;6.25;;;;;;;21.70;40.33;95110.47;4939137;29;20040;-75
2020/12/06 01:44:47;;;;;;;8.27;5.95;;;;;;;21.69;40.52;95109.72;4920957;29;20470;-76
2020/12/06 01:47:13;;;;;;;9.98;5.93;;;;;;;21.70;40.31;95110.47;4943679;29;20417;-76
2020/12/06 01:49:38;;;;;;;8.65;5.68;;;;;;;21.69;40.44;95109.00;4925633;29;20497;-75
2020/12/06 01:52:05;;;;;;;8.73;5.95;;;;;;;21.67;40.40;95108.75;4907997;29;20019;-76
2020/12/06 01:54:30;;;;;;;8.38;5.65;;;;;;;21.65;40.43;95097.63;4925718;29;20035;-76
2020/12/06 01:56:56;;;;;;;8.18;5.65;;;;;;;21.64;40.60;95090.72;4934942;29;20097;-77
2020/12/06 01:59:21;;;;;;;7.75;5.75;;;;;;;21.66;40.57;95090.97;4939592;29;20031;-76
2020/12/06 02:01:58;;;;;;;8.63;5.70;;;;;;;21.61;40.54;95092.47;4936389;29;20036;-75
2020/12/06 02:04:24;;;;;;;8.73;6.13;;;;;;;21.61;40.42;95097.13;4921629;29;20019;-76
2020/12/06 02:06:49;;;;;;;7.60;5.75;;;;;;;21.60;40.43;95101.09;4938073;29;20039;-76
2020/12/06 02:09:14;;;;;;;7.70;5.30;;;;;;;21.61;40.63;95102.56;4917248;29;20024;-76
2020/12/06 02:11:40;;;;;;;8.63;5.82;;;;;;;21.60;40.54;95103.81;4934250;29;22096;-76
2020/12/06 02:14:05;;;;;;;7.82;5.35;;;;;;;21.58;40.51;95103.56;4935819;29;20035;-76
2020/12/06 02:16:31;;;;;;;8.70;5.25;;;;;;;21.58;40.55;95098.13;4919205;29;20031;-76
2020/12/06 02:18:56;;;;;;;9.35;5.97;;;;;;;21.56;40.75;95100.59;4943344;29;20027;-76
2020/12/06 02:21:22;;;;;;;8.90;5.22;;;;;;;21.58;40.53;95106.28;4935065;29;20020;-76
2020/12/06 02:23:47;;;;;;;8.07;5.55;;;;;;;21.54;40.71;95097.66;4935278;29;20027;-76
2020/12/06 02:26:12;;;;;;;8.65;6.13;;;;;;;21.55;40.55;95099.88;4903939;29;20039;-76
2020/12/06 02:28:38;;;;;;;7.85;5.47;;;;;;;21.55;40.54;95099.88;4939751;29;20035;-77
2020/12/06 02:31:03;;;;;;;7.75;5.07;;;;;;;21.53;40.63;95101.59;4904102;29;20112;-77
2020/12/06 02:33:29;;;;;;;7.72;5.05;;;;;;;21.45;40.58;95078.84;4933708;29;20016;-76
2020/12/06 02:35:54;;;;;;;6.93;4.90;;;;;;;21.51;40.80;95087.75;4939564;29;20035;-76
2020/12/06 02:38:20;;;;;;;8.10;5.38;;;;;;;21.50;40.45;95097.16;4929981;29;20023;-76
2020/12/06 02:40:45;;;;;;;7.80;5.30;;;;;;;21.48;40.71;95091.47;4939023;29;20038;-77
2020/12/06 02:43:10;;;;;;;7.93;5.15;;;;;;;21.49;40.80;95090.97;4937332;29;20028;-76
2020/12/06 02:45:36;;;;;;;7.70;5.28;;;;;;;21.50;40.63;95097.16;4939472;29;20422;-76
2020/12/06 02:48:01;;;;;;;8.02;5.15;;;;;;;21.46;40.73;95085.78;4916816;29;20024;-76
2020/12/06 02:50:27;;;;;;;8.15;4.93;;;;;;;21.48;40.66;95094.19;4943357;29;20039;-75
2020/12/06 02:52:57;;;;;;;7.93;5.20;;;;;;;21.49;40.61;95080.13;4937533;29;20039;-76
2020/12/06 02:55:25;;;;;;;7.95;5.13;;;;;;;21.47;40.58;95081.84;4939515;29;20039;-76
2020/12/06 02:57:51;;;;;;;9.80;5.93;;;;;;;21.47;40.70;95076.41;4936807;29;20039;-76
2020/12/06 03:00:17;;;;;;;8.20;5.50;;;;;;;21.46;40.55;95080.34;4932327;29;20485;-76
2020/12/06 03:02:42;;;;;;;7.68;5.13;;;;;;;21.41;40.76;95078.34;4903190;29;20035;-76
2020/12/06 03:05:08;;;;;;;9.18;5.30;;;;;;;21.45;40.87;95089.72;4932167;29;20090;-76
2020/12/06 03:07:33;;;;;;;8.75;5.65;;;;;;;21.42;40.75;95077.13;4935445;29;20031;-77
2020/12/06 03:09:59;;;;;;;7.15;4.70;;;;;;;21.42;40.76;95081.78;4938464;29;20094;-76
2020/12/06 03:12:24;;;;;;;6.95;4.63;;;;;;;21.43;40.64;95070.44;4920214;29;20023;-76
2020/12/06 03:14:49;;;;;;;8.10;5.18;;;;;;;21.42;40.77;95074.41;4933214;29;20078;-76
2020/12/06 03:17:15;;;;;;;7.93;5.15;;;;;;;21.39;40.81;95069.97;4939152;29;20063;-76
2020/12/06 03:19:40;;;;;;;7.60;4.88;;;;;;;21.40;40.54;95071.41;4937087;29;20693;-76
2020/12/06 03:22:06;;;;;;;7.35;4.93;;;;;;;21.37;40.74;95077.84;4922060;29;20028;-76
2020/12/06 03:24:31;;;;;;;7.03;4.80;;;;;;;21.38;41.09;95073.91;4938312;29;20027;-75
2020/12/06 03:26:57;;;;;;;8.23;5.18;;;;;;;21.35;40.58;95064.03;4936256;29;20038;-76
2020/12/06 03:29:22;;;;;;;6.75;5.00;;;;;;;21.35;40.73;95074.88;4934643;29;20035;-77
2020/12/06 03:31:47;;;;;;;7.20;4.70;;;;;;;21.30;40.80;95061.31;4938377;29;20075;-76
2020/12/06 03:34:13;;;;;;;8.07;5.15;;;;;;;21.36;40.73;95076.38;4936391;29;20032;-76
2020/12/06 03:36:38;;;;;;;6.90;5.30;;;;;;;21.31;40.91;95063.53;4936586;29;20031;-76
2020/12/06 03:39:04;;;;;;;7.20;4.75;;;;;;;21.35;40.85;95072.16;4934360;29;20023;-76
2020/12/06 03:41:29;;;;;;;6.38;4.38;;;;;;;21.35;40.77;95069.47;4935470;29;20039;-76
2020/12/06 03:43:54;;;;;;;6.15;4.30;;;;;;;21.37;40.57;95077.84;4936882;29;20746;-76
2020/12/06 03:46:20;;;;;;;8.20;5.03;;;;;;;21.28;40.71;95064.50;4936638;29;20034;-76
2020/12/06 03:48:45;;;;;;;8.10;5.03;;;;;;;21.35;40.72;95074.88;4917355;29;20019;-75
2020/12/06 03:51:11;;;;;;;6.85;4.43;;;;;;;21.37;40.77;95072.41;4924428;29;20065;-75
2020/12/06 03:53:36;;;;;;;8.02;4.90;;;;;;;21.48;41.03;95073.19;4935743;29;20023;-75
2020/12/06 03:56:01;;;;;;;7.45;4.82;;;;;;;21.52;40.96;95078.38;4939109;29;20027;-75
2020/12/06 03:58:27;;;;;;;6.28;4.53;;;;;;;21.55;40.74;95077.38;4933247;29;20032;-75
2020/12/06 04:00:52;;;;;;;8.10;5.18;;;;;;;21.60;40.73;95082.09;4934567;29;20039;-76
2020/12/06 04:03:18;;;;;;;6.65;4.65;;;;;;;21.60;41.03;95080.09;4937491;29;20031;-77
2020/12/06 04:05:43;;;;;;;6.05;4.40;;;;;;;21.61;41.16;95075.41;4918064;29;20027;-75
2020/12/06 04:08:08;;;;;;;6.78;4.57;;;;;;;21.69;40.81;95076.38;4934715;29;20012;-76
2020/12/06 04:10:34;;;;;;;7.25;3.97;;;;;;;21.68;40.80;95070.19;4931897;29;20435;-76
2020/12/06 04:12:59;;;;;;;6.97;4.68;;;;;;;21.73;40.83;95066.00;4934011;29;20500;-76
2020/12/06 04:15:25;;;;;;;6.82;4.50;;;;;;;21.71;40.92;95069.19;4937217;29;20031;-76
2020/12/06 04:17:50;;;;;;;6.05;4.20;;;;;;;21.79;40.81;95072.88;4920375;29;20031;-75
2020/12/06 04:20:15;;;;;;;6.05;4.10;;;;;;;21.80;40.71;95070.94;4936947;29;20083;-76
2020/12/06 04:22:41;;;;;;;6.55;4.60;;;;;;;21.84;40.63;95065.97;4937244;29;20039;-76
2020/12/06 04:25:06;;;;;;;5.18;3.95;;;;;;;21.84;40.77;95068.69;4930595;29;20027;-75
2020/12/06 04:27:32;;;;;;;5.15;3.70;;;;;;;21.87;40.80;95070.41;4936741;29;20015;-77
2020/12/06 04:29:57;;;;;;;6.40;4.30;;;;;;;21.89;40.57;95067.94;4937722;29;20095;-76
2020/12/06 04:32:23;;;;;;;5.30;3.85;;;;;;;21.87;40.70;95064.97;4922632;29;20036;-76
2020/12/06 04:34:48;;;;;;;6.55;4.00;;;;;;;21.93;40.60;95075.34;4932797;29;20038;-76
2020/12/06 04:37:13;;;;;;;7.18;4.38;;;;;;;21.95;40.65;95067.41;4914547;29;20042;-77
2020/12/06 04:39:39;;;;;;;6.30;4.03;;;;;;;21.94;40.52;95065.97;4938859;29;20031;-76
2020/12/06 04:42:04;;;;;;;5.80;3.47;;;;;;;21.98;40.64;95066.41;4933449;29;20177;-76
2020/12/06 04:44:30;;;;;;;5.43;3.80;;;;;;;22.01;40.57;95064.69;4923977;29;20094;-76
2020/12/06 04:47:00;;;;;;;5.95;4.07;;;;;;;21.98;40.73;95066.41;4938313;29;20043;-75
2020/12/06 04:49:42;;;;;;;4.78;3.42;;;;;;;22.02;40.55;95066.19;4931163;29;20055;-75
2020/12/06 04:52:08;;;;;;;6.00;3.95;;;;;;;22.04;40.42;95069.88;4926978;29;20035;-75
2020/12/06 04:54:37;;;;;;;5.10;3.53;;;;;;;22.06;40.48;95081.00;4916503;29;20023;-75
2020/12/06 04:57:03;;;;;;;5.82;3.85;;;;;;;22.05;40.47;95071.34;4924877;29;20027;-75
2020/12/06 04:59:28;;;;;;;6.03;3.70;;;;;;;22.03;40.58;95073.84;4933668;29;20039;-75
2020/12/06 05:01:54;;;;;;;4.78;3.58;;;;;;;22.04;40.48;95075.31;4916521;29;20051;-74
2020/12/06 05:04:19;;;;;;;5.07;3.85;;;;;;;22.10;40.48;95078.75;4921128;29;20409;-76
2020/12/06 05:06:45;;;;;;;6.05;4.10;;;;;;;22.10;40.50;95078.03;4906017;29;20482;-75
2020/12/06 05:09:14;;;;;;;5.50;4.05;;;;;;;22.12;40.36;95086.41;4941126;29;20027;-75
2020/12/06 05:11:40;;;;;;;4.72;3.60;;;;;;;22.13;40.39;95083.19;4919713;29;20107;-75
2020/12/06 05:14:06;;;;;;;4.93;3.65;;;;;;;22.13;40.26;95083.19;4922290;29;20478;-75
2020/12/06 05:16:35;;;;;;;5.47;3.58;;;;;;;22.21;40.22;95095.09;4916724;29;20078;-76
2020/12/06 05:19:04;;;;;;;5.63;4.07;;;;;;;22.25;39.94;95095.53;4916065;29;20150;-77
2020/12/06 05:21:36;;;;;;;4.83;3.40;;;;;;;22.22;39.94;95088.38;4920770;29;20162;-78
2020/12/06 05:24:02;;;;;;;5.75;3.67;;;;;;;22.26;40.19;95096.31;4918713;29;20039;-77
2020/12/06 05:26:28;;;;;;;5.68;3.42;;;;;;;22.28;40.21;95082.94;4932930;29;20028;-77
2020/12/06 05:28:53;;;;;;;4.75;3.17;;;;;;;22.28;40.35;95082.94;4915855;29;20086;-78
2020/12/06 05:31:19;;;;;;;5.53;3.53;;;;;;;22.30;40.29;95081.22;4932688;29;20231;-76
2020/12/06 05:33:44;;;;;;;5.30;3.42;;;;;;;22.32;40.05;95084.16;4930563;29;20035;-77
2020/12/06 05:36:11;;;;;;;5.05;3.50;;;;;;;22.33;39.94;95091.09;4920562;29;20035;-76
2020/12/06 05:38:36;;;;;;;5.00;3.55;;;;;;;22.32;40.03;95076.00;4904363;29;20019;-76
2020/12/06 05:41:06;;;;;;;4.18;3.00;;;;;;;22.36;40.06;95098.25;4932327;29;20036;-76
2020/12/06 05:43:32;;;;;;;5.38;3.50;;;;;;;22.31;40.12;95088.09;4932982;29;20028;-76
2020/12/06 05:46:11;;;;;;;5.63;3.70;;;;;;;22.39;40.12;95091.06;4927507;29;20054;-79
2020/12/06 05:48:37;;;;;;;6.38;4.15;;;;;;;22.41;39.97;95108.38;4930480;28;20416;-78
2020/12/06 05:51:02;;;;;;;4.55;3.30;;;;;;;22.42;40.10;95116.03;4933982;29;20016;-75
2020/12/06 05:53:29;;;;;;;4.68;3.22;;;;;;;22.43;39.99;95112.06;4933872;29;20043;-77
2020/12/06 05:55:56;;;;;;;5.38;3.50;;;;;;;22.42;40.23;95112.56;4901718;29;20458;-77
2020/12/06 05:58:23;;;;;;;4.28;3.08;;;;;;;22.43;39.92;95117.53;4904776;29;20133;-77
2020/12/06 06:00:49;;;;;;;4.22;3.03;;;;;;;22.47;40.03;95122.69;4920915;29;20020;-77
2020/12/06 06:03:14;;;;;;;4.47;2.95;;;;;;;22.47;39.69;95119.97;4931597;29;20024;-76
2020/12/06 06:05:41;;;;;;;4.95;3.67;;;;;;;22.50;39.92;95132.56;4921208;29;20416;-76
2020/12/06 06:08:06;;;;;;;5.70;3.25;;;;;;;22.54;39.98;95116.72;4913181;29;20090;-78
2020/12/06 06:10:34;;;;;;;5.13;3.20;;;;;;;22.52;39.96;95119.94;4916250;29;20504;-76
2020/12/06 06:13:01;;;;;;;5.80;3.55;;;;;;;22.51;40.04;95117.72;4936165;29;20043;-76
2020/12/06 06:15:27;;;;;;;4.95;3.20;;;;;;;22.46;39.71;95110.31;4935120;29;20093;-77
2020/12/06 06:17:52;;;;;;;4.65;3.10;;;;;;;22.54;39.86;95122.91;4916191;29;20042;-78
2020/12/06 06:20:18;;;;;;;4.40;2.63;;;;;;;22.55;39.83;95123.63;4898176;29;20028;-78
2020/12/06 06:22:45;;;;;;;4.35;3.15;;;;;;;22.58;39.65;95128.09;4900009;29;21908;-76
2020/12/06 06:25:11;;;;;;;4.00;2.90;;;;;;;22.61;39.60;95127.09;4917590;29;20062;-76
2020/12/06 06:27:38;;;;;;;5.10;3.33;;;;;;;22.63;39.57;95119.16;4931179;29;20039;-77
2020/12/06 06:30:04;;;;;;;4.60;2.90;;;;;;;22.72;39.54;95132.47;4901119;29;20099;-76
2020/12/06 06:32:31;;;;;;;3.80;3.00;;;;;;;22.76;39.63;95127.50;4916067;29;20032;-76
2020/12/06 06:34:56;;;;;;;4.38;2.83;;;;;;;22.79;39.47;95118.34;4918163;29;20054;-76
2020/12/06 06:37:21;;;;;;;4.15;3.00;;;;;;;22.88;39.17;95123.50;4930619;29;20548;-75
2020/12/06 06:39:47;;;;;;;4.25;2.67;;;;;;;22.92;39.15;95130.88;4902578;29;20024;-75
2020/12/06 06:42:14;;;;;;;4.50;3.25;;;;;;;22.97;38.91;95127.44;4929294;29;20523;-77
2020/12/06 06:44:43;;;;;;;5.40;3.35;;;;;;;23.03;38.79;95130.88;4916582;29;20497;-76
2020/12/06 06:47:11;;;;;;;4.68;3.05;;;;;;;23.10;38.60;95127.59;4918773;29;20045;-77
2020/12/06 06:49:49;;;;;;;3.92;2.67;;;;;;;23.15;38.69;95132.28;4917119;29;20055;-76
2020/12/06 06:52:15;;;;;;;4.45;3.03;;;;;;;23.23;38.33;95133.22;4938631;29;20515;-77
2020/12/06 06:54:41;;;;;;;4.15;2.90;;;;;;;23.29;38.34;95131.22;4918733;29;20028;-76
2020/12/06 06:57:06;;;;;;;5.00;3.10;;;;;;;23.31;38.42;95125.97;4932628;29;20055;-78
2020/12/06 06:59:39;;;;;;;4.15;2.72;;;;;;;23.41;38.14;95138.06;4917975;29;20473;-77
2020/12/06 07:02:05;;;;;;;4.30;3.00;;;;;;;23.44;37.99;95135.06;4934516;29;20090;-79
2020/12/06 07:04:30;;;;;;;4.47;2.70;;;;;;;23.53;37.97;95134.00;4905739;29;20033;-74
2020/12/06 07:06:56;;;;;;;3.65;2.55;;;;;;;23.64;38.42;95131.22;4917098;29;20413;-79
2020/12/06 07:09:26;;;;;;;4.78;3.05;;;;;;;23.71;38.21;95123.22;4919747;29;20027;-77
2020/12/06 07:11:55;;;;;;;4.05;2.95;;;;;;;23.78;38.27;95121.91;4915894;29;20272;-77
2020/12/06 07:14:23;;;;;;;4.75;2.90;;;;;;;23.81;38.04;95124.41;4929166;29;20095;-74
2020/12/06 07:16:49;;;;;;;4.40;2.80;;;;;;;23.84;37.72;95123.38;4918592;29;20035;-74
2020/12/06 07:19:14;;;;;;;4.85;3.10;;;;;;;23.86;37.62;95124.31;4904564;29;20038;-76
2020/12/06 07:21:41;;;;;;;4.13;2.70;;;;;;;23.91;38.03;95120.06;4919054;29;20036;-77
2020/12/06 07:24:06;;;;;;;3.60;2.70;;;;;;;23.94;37.37;95119.78;4916838;29;20035;-77
2020/12/06 07:26:32;;;;;;;4.00;2.60;;;;;;;23.97;37.91;95124.22;4932184;29;20036;-77
2020/12/06 07:28:57;;;;;;;4.13;2.63;;;;;;;24.03;37.71;95119.44;4902087;29;20038;-77
2020/12/06 07:31:24;;;;;;;3.60;2.58;;;;;;;24.05;37.25;95119.69;4931132;29;20032;-73
2020/12/06 07:33:49;;;;;;;3.75;2.67;;;;;;;24.13;37.24;95122.59;4932101;29;20051;-75
2020/12/06 07:36:15;;;;;;;3.78;2.70;;;;;;;24.10;37.59;95110.72;4931988;29;20445;-75
2020/12/06 07:38:40;;;;;;;4.55;2.83;;;;;;;24.18;37.71;95122.53;4935599;28;20035;-75
2020/12/06 07:41:06;;;;;;;4.00;2.60;;;;;;;24.12;37.29;95102.75;4936883;29;20091;-74
2020/12/06 07:43:31;;;;;;;3.67;2.90;;;;;;;24.28;37.08;95110.03;4930200;29;20095;-74
2020/12/06 07:45:57;;;;;;;3.38;2.40;;;;;;;24.34;37.01;95113.47;4900591;29;20548;-77
2020/12/06 07:48:23;;;;;;;3.75;2.40;;;;;;;24.39;37.42;95115.38;4923313;29;20043;-78
2020/12/06 07:50:48;;;;;;;4.78;2.70;;;;;;;24.40;37.03;95116.88;4937623;29;20023;-76
2020/12/06 07:53:14;;;;;;;4.10;2.60;;;;;;;24.48;36.71;95117.75;4934268;29;20425;-74
2020/12/06 07:55:41;;;;;;;3.60;2.55;;;;;;;24.50;36.69;95105.09;4931368;29;20032;-75
2020/12/06 07:58:18;;;;;;;3.53;2.45;;;;;;;24.55;36.58;95111.72;4916428;29;20087;-77
2020/12/06 08:00:44;;;;;;;4.25;2.78;;;;;;;24.58;36.59;95110.72;4916893;29;20572;-77
2020/12/06 08:03:09;;;;;;;3.80;2.63;;;;;;;24.62;36.89;95113.88;4934988;29;20036;-76
2020/12/06 08:05:39;;;;;;;3.58;2.40;;;;;;;24.57;36.77;95109.22;4905627;29;20035;-78
2020/12/06 08:08:18;;;;;;;4.57;2.70;;;;;;;24.62;36.45;95094.75;4919611;29;20038;-78
2020/12/06 08:10:43;;;;;;;4.10;2.55;;;;;;;24.67;36.32;95107.63;4931221;29;20051;-76
2020/12/06 08:13:10;;;;;;;3.75;2.60;;;;;;;24.70;36.38;95107.31;4900824;29;20031;-76
2020/12/06 08:15:35;;;;;;;4.10;2.80;;;;;;;24.74;36.25;95112.47;4900827;29;20130;-75
2020/12/06 08:18:01;;;;;;;4.10;2.72;;;;;;;24.75;36.40;95103.03;4918452;29;20035;-76
2020/12/06 08:20:26;;;;;;;5.75;2.75;;;;;;;24.75;36.45;95103.03;4940495;29;20066;-77
2020/12/06 08:22:56;;;;;;;3.67;2.55;;;;;;;24.79;36.84;95100.75;4919611;29;20062;-75
2020/12/06 08:25:32;;;;;;;3.78;2.72;;;;;;;24.79;36.55;95098.75;4914780;29;20042;-77
2020/12/06 08:27:59;;;;;;;4.55;2.50;;;;;;;24.82;36.29;95091.53;4915777;29;20515;-75
2020/12/06 08:30:27;;;;;;;4.20;2.40;;;;;;;24.85;36.46;95102.16;4930804;29;20055;-75
2020/12/06 08:33:00;;;;;;;4.25;2.50;;;;;;;24.88;36.13;95101.84;4901711;29;20102;-74
2020/12/06 08:35:36;;;;;;;4.88;2.25;;;;;;;24.89;36.26;95103.34;4934769;29;20027;-75
2020/12/06 08:38:33;;;;;;;4.93;3.00;;;;;;;24.94;36.71;95094.31;4936262;29;20028;-75
2020/12/06 08:41:06;;;;;;;3.33;2.70;;;;;;;24.97;36.27;95087.81;4929276;29;20031;-79
2020/12/06 08:43:47;;;;;;;4.40;2.63;;;;;;;25.00;36.46;95086.81;4918205;29;20489;-79
2020/12/06 08:46:17;;;;;;;4.82;2.40;;;;;;;24.97;36.33;95087.81;4928323;29;20043;-76
2020/12/06 08:48:43;;;;;;;4.65;2.55;;;;;;;25.03;36.59;95080.31;4913333;29;20609;-77
2020/12/06 08:51:29;;;;;;;4.43;2.33;;;;;;;25.10;35.99;95077.00;4912211;29;20035;-77
2020/12/06 08:53:55;;;;;;;4.80;2.90;;;;;;;25.09;36.02;95067.31;4931040;29;20489;-79
2020/12/06 08:56:34;;;;;;;6.15;2.90;;;;;;;25.06;35.40;95057.44;4931472;29;20086;-78
2020/12/06 08:59:05;;;;;;;5.50;3.30;;;;;;;25.16;35.61;95072.19;4914473;29;20090;-78
2020/12/06 09:01:31;;;;;;;4.47;3.03;;;;;;;25.12;35.72;95071.00;4931363;29;20039;-76
2020/12/06 09:03:57;;;;;;;5.72;3.63;;;;;;;25.15;35.55;95065.25;4912194;29;20038;-77
2020/12/06 09:06:22;;;;;;;5.53;3.28;;;;;;;25.13;35.74;95067.75;4933657;29;20036;-78
2020/12/06 09:08:47;;;;;;;6.32;3.47;;;;;;;25.16;35.58;95058.53;4932868;29;20556;-78
2020/12/06 09:11:22;;;;;;;5.68;3.20;;;;;;;25.16;35.98;95061.25;4915811;29;20509;-77
2020/12/06 09:13:48;;;;;;;4.95;3.47;;;;;;;25.18;35.86;95064.19;4931729;29;20115;-80
2020/12/06 09:16:13;;;;;;;9.18;3.67;;;;;;;25.23;36.03;95066.13;4913406;29;20110;-77
2020/12/06 09:18:39;;;;;;;9.18;3.40;;;;;;;25.22;36.35;95064.66;4934795;29;20461;-77
2020/12/06 09:21:05;;;;;;;8.38;4.00;;;;;;;25.23;36.07;95066.13;4897592;29;20618;-78
2020/12/06 09:23:31;;;;;;;7.22;3.83;;;;;;;25.24;36.91;95056.66;4899990;29;20035;-76
2020/12/06 09:26:00;;;;;;;7.03;3.65;;;;;;;25.23;36.79;95060.66;4918981;29;20417;-77
2020/12/06 09:28:26;;;;;;;7.00;3.90;;;;;;;25.24;36.92;95040.25;4937511;29;20035;-78
2020/12/06 09:30:51;;;;;;;10.43;4.00;;;;;;;25.11;36.97;95039.47;4931227;29;20027;-79
2020/12/06 09:33:17;;;;;;;8.10;3.85;;;;;;;25.12;37.50;95038.94;4919907;29;20035;-77
2020/12/06 09:35:42;;;;;;;7.97;4.18;;;;;;;25.23;37.19;95044.28;4938431;29;20023;-75
2020/12/06 09:38:07;;;;;;;7.15;4.10;;;;;;;25.21;37.03;95041.28;4934804;29;20040;-76
2020/12/06 09:40:33;;;;;;;6.75;4.38;;;;;;;25.26;37.47;95043.22;4941889;29;20036;-75
2020/12/06 09:42:58;;;;;;;7.85;4.30;;;;;;;25.21;38.06;95041.28;4936425;29;20051;-76
2020/12/06 09:45:24;;;;;;;6.82;4.35;;;;;;;25.21;37.92;95040.56;4938482;29;20485;-77
2020/12/06 09:47:49;;;;;;;8.77;4.30;;;;;;;25.15;38.00;95037.91;4931815;29;20580;-78
2020/12/06 09:50:15;;;;;;;6.90;4.03;;;;;;;25.20;38.35;95028.16;4937617;29;20031;-77
2020/12/06 09:52:40;;;;;;;7.93;4.10;;;;;;;25.25;38.28;95030.09;4941759;29;20050;-77
2020/12/06 09:55:05;;;;;;;10.63;4.53;;;;;;;25.25;38.40;95032.81;4925039;29;20046;-77
2020/12/06 09:57:31;;;;;;;11.90;4.47;;;;;;;25.27;38.26;95028.28;4940115;29;20038;-77
2020/12/06 09:59:56;;;;;;;10.48;4.57;;;;;;;25.21;38.07;95019.44;4937965;29;20054;-77
2020/12/06 10:02:22;;;;;;;8.38;4.75;;;;;;;25.18;38.54;95025.94;4940649;29;20039;-78
2020/12/06 10:04:47;;;;;;;10.27;4.72;;;;;;;25.22;38.20;95020.91;4934960;29;20039;-77
2020/12/06 10:07:12;;;;;;;9.25;4.28;;;;;;;25.22;38.12;95007.25;4918058;29;20044;-77
2020/12/06 10:09:38;;;;;;;9.55;4.57;;;;;;;25.21;37.83;95003.03;4937210;29;20035;-77
2020/12/06 10:12:03;;;;;;;10.75;4.55;;;;;;;25.21;37.85;94986.63;4931757;29;20043;-78
2020/12/06 10:14:29;;;;;;;10.85;4.80;;;;;;;25.19;38.13;94994.63;4934504;29;20035;-77
2020/12/06 10:16:54;;;;;;;9.15;4.40;;;;;;;25.25;37.78;94998.00;4918494;29;20043;-78
2020/12/06 10:19:20;;;;;;;5.85;4.03;;;;;;;25.21;38.22;94997.56;4930995;29;20092;-76
2020/12/06 10:21:45;;;;;;;8.57;4.90;;;;;;;25.23;37.80;94989.59;4900066;29;20490;-79
2020/12/06 10:24:10;;;;;;;9.25;4.60;;;;;;;25.25;37.75;94986.34;4934399;29;20039;-78
2020/12/06 10:26:36;;;;;;;11.38;5.00;;;;;;;25.26;37.74;94976.88;4912450;29;20042;-76
2020/12/06 10:29:01;;;;;;;8.07;4.53;;;;;;;25.27;37.66;94976.34;4934923;29;20038;-81
2020/12/06 10:31:27;;;;;;;8.57;4.75;;;;;;;25.29;37.55;94976.59;4934492;29;20050;-79
2020/12/06 10:33:52;;;;;;;9.55;4.90;;;;;;;25.30;37.69;94972.56;4902721;29;20126;-80
2020/12/06 10:36:18;;;;;;;7.72;4.35;;;;;;;25.27;37.88;94968.16;4936595;29;20020;-80
2020/12/06 10:38:43;;;;;;;7.85;4.70;;;;;;;25.33;37.40;94966.81;4921591;29;20094;-79
2020/12/06 10:41:12;;;;;;;11.13;5.15;;;;;;;25.35;37.43;94963.53;4935765;29;20406;-79
2020/12/06 10:43:37;;;;;;;8.55;5.07;;;;;;;25.37;37.61;94963.75;4905436;29;20023;-80
2020/12/06 10:46:02;;;;;;;11.38;4.95;;;;;;;25.39;37.31;94969.44;4936909;29;20039;-79
2020/12/06 10:48:28;;;;;;;9.45;5.07;;;;;;;25.36;37.09;94959.53;4933719;29;20044;-80
2020/12/06 10:50:53;;;;;;;9.85;5.25;;;;;;;25.36;37.56;94965.00;4935470;29;20111;-78
2020/12/06 10:53:19;;;;;;;9.40;5.07;;;;;;;25.37;37.35;94955.56;4921037;29;20503;-80
2020/12/06 10:55:44;;;;;;;8.60;5.78;;;;;;;25.44;37.47;94960.38;4921086;29;20032;-78
2020/12/06 10:58:10;;;;;;;9.90;5.03;;;;;;;25.39;37.50;94963.97;4935482;29;20071;-78
2020/12/06 11:00:35;;;;;;;10.40;5.60;;;;;;;25.34;37.56;94962.06;4919083;29;20039;-79
2020/12/06 11:03:01;;;;;;;8.32;5.35;;;;;;;25.40;37.89;94965.44;4917891;29;20043;-79
2020/12/06 11:05:27;;;;;;;10.30;5.63;;;;;;;25.37;38.05;94961.75;4919308;29;20485;-79
2020/12/06 11:07:52;;;;;;;12.02;5.35;;;;;;;25.34;37.73;94954.59;4936866;29;20483;-78
2020/12/06 11:10:18;;;;;;;8.77;5.53;;;;;;;25.33;37.72;94960.59;4919735;29;20042;-77
2020/12/06 11:12:43;;;;;;;9.10;5.63;;;;;;;25.36;38.17;94956.81;4919622;29;20497;-78
2020/12/06 11:15:09;;;;;;;12.65;6.57;;;;;;;25.30;38.27;94942.50;4936251;29;20421;-77
2020/12/06 11:17:34;;;;;;;9.32;5.78;;;;;;;25.41;37.87;94934.09;4916724;29;20044;-78
2020/12/06 11:20:00;;;;;;;9.15;5.70;;;;;;;25.37;38.13;94939.16;4938665;29;20027;-79
2020/12/06 11:22:25;;;;;;;11.15;5.40;;;;;;;25.40;37.86;94932.63;4934167;29;20390;-78
2020/12/06 11:24:51;;;;;;;10.60;5.03;;;;;;;25.51;37.95;94932.44;4932959;29;20087;-75
2020/12/06 11:27:16;;;;;;;9.32;5.53;;;;;;;25.55;37.85;94938.34;4916652;29;20445;-76